Time;durP1;ratioP1;P1;durP2;ratioP2;P2;SDS_P1;SDS_P2;PMS_P1;PMS_P2;Temp;Humidity;BMP_temperature;BMP_pressure;BME280_temperature;BME280_humidity;BME280_pressure;Samples;Min_cycle;Max_cycle;Signal;HPM_P1;HPM_P2
2021/10/28 00:14:37;;;;;;;12.03;10.50;;;;;;;15.45;45.62;100502.52;1814200;78;21014;-65
2021/10/28 00:17:10;;;;;;;12.58;11.28;;;;;;;15.44;45.63;100498.20;1802529;78;21202;-64
2021/10/28 00:19:34;;;;;;;12.43;11.18;;;;;;;15.42;45.64;100504.24;1809067;78;21119;-64
2021/10/28 00:22:01;;;;;;;12.15;10.90;;;;;;;15.41;45.63;100499.38;1806917;77;21065;-64
2021/10/28 00:24:28;;;;;;;15.03;11.88;;;;;;;15.41;45.62;100499.89;1803512;78;21049;-64
2021/10/28 00:26:54;;;;;;;13.13;11.05;;;;;;;15.42;45.61;100500.23;1810724;78;21037;-64
2021/10/28 00:29:23;;;;;;;14.38;12.40;;;;;;;15.41;45.61;100498.55;1836053;77;21490;-65
2021/10/28 00:31:49;;;;;;;13.13;11.48;;;;;;;15.41;45.58;100502.05;1832030;77;21149;-64
2021/10/28 00:34:16;;;;;;;13.32;11.93;;;;;;;15.41;45.56;100494.53;1827484;77;21029;-64
2021/10/28 00:36:47;;;;;;;13.93;11.00;;;;;;;15.41;45.55;100492.68;1820174;77;20978;-64
2021/10/28 00:39:13;;;;;;;12.53;11.22;;;;;;;15.41;45.55;100491.85;1831666;77;21037;-63
2021/10/28 00:41:40;;;;;;;13.03;11.28;;;;;;;15.40;45.53;100493.70;1816440;77;21070;-65
2021/10/28 00:44:07;;;;;;;13.32;11.18;;;;;;;15.40;45.50;100492.88;1826837;77;21084;-63
2021/10/28 00:46:35;;;;;;;12.18;10.90;;;;;;;15.39;45.52;100489.35;1808852;78;21041;-65
2021/10/28 00:49:03;;;;;;;12.30;10.95;;;;;;;15.40;45.48;100495.56;1798042;78;21073;-64
2021/10/28 00:51:31;;;;;;;13.32;11.12;;;;;;;15.39;45.47;100486.67;1809070;78;21062;-64
2021/10/28 00:53:58;;;;;;;12.47;10.88;;;;;;;15.38;45.46;100489.05;1797642;78;21057;-65
2021/10/28 00:56:27;;;;;;;13.28;11.85;;;;;;;15.38;45.47;100480.19;1785523;78;21115;-65
2021/10/28 00:58:53;;;;;;;12.33;10.48;;;;;;;15.38;45.46;100478.85;1816535;77;21069;-65
2021/10/28 01:01:20;;;;;;;12.58;10.53;;;;;;;15.37;45.44;100474.49;1814370;77;21130;-64
2021/10/28 01:03:46;;;;;;;12.43;11.12;;;;;;;15.36;45.45;100459.46;1811287;79;21003;-65
2021/10/28 01:06:13;;;;;;;14.90;11.68;;;;;;;15.36;45.44;100467.49;1817672;78;21035;-64
2021/10/28 01:08:44;;;;;;;13.25;11.73;;;;;;;15.34;45.43;100464.47;1813152;78;21074;-63
2021/10/28 01:11:11;;;;;;;12.25;10.95;;;;;;;15.35;45.44;100465.30;1796012;78;21103;-64
2021/10/28 01:13:38;;;;;;;12.75;11.38;;;;;;;15.33;45.42;100472.16;1804425;78;21046;-65
2021/10/28 01:16:06;;;;;;;12.78;11.45;;;;;;;15.33;45.44;100467.33;1812228;78;21069;-64
2021/10/28 01:18:34;;;;;;;12.75;11.53;;;;;;;15.33;45.42;100468.67;1806925;78;21042;-65
2021/10/28 01:21:01;;;;;;;11.95;10.48;;;;;;;15.31;45.43;100459.98;1811255;78;21095;-63
2021/10/28 01:23:27;;;;;;;12.85;11.33;;;;;;;15.32;45.41;100461.66;1805876;78;21066;-63
2021/10/28 01:26:04;;;;;;;13.08;11.70;;;;;;;15.31;45.43;100457.31;1810789;77;21073;-66
2021/10/28 01:28:31;;;;;;;12.30;10.90;;;;;;;15.30;45.41;100457.00;1805155;78;21090;-63
2021/10/28 01:31:01;;;;;;;13.20;11.38;;;;;;;15.29;45.39;100457.48;1792659;78;21046;-66
2021/10/28 01:33:27;;;;;;;12.78;11.25;;;;;;;15.28;45.40;100447.81;1802967;78;21799;-64
2021/10/28 01:35:54;;;;;;;14.93;11.97;;;;;;;15.28;45.40;100446.47;1810553;78;21002;-64
2021/10/28 01:38:21;;;;;;;12.37;10.98;;;;;;;15.29;45.41;100445.95;1787420;78;21049;-65
2021/10/28 01:41:00;;;;;;;14.68;11.50;;;;;;;15.27;45.37;100452.81;1778320;78;21102;-64
2021/10/28 01:43:28;;;;;;;13.90;12.33;;;;;;;15.27;45.39;100445.30;1783977;79;21727;-63
2021/10/28 01:45:54;;;;;;;13.78;11.38;;;;;;;15.26;45.38;100442.29;1790279;78;21926;-64
2021/10/28 01:48:23;;;;;;;13.80;10.88;;;;;;;15.25;45.40;100450.01;1787395;80;21541;-64
2021/10/28 01:50:50;;;;;;;13.35;11.53;;;;;;;15.24;45.39;100438.96;1785756;78;21039;-63
2021/10/28 01:53:16;;;;;;;15.25;11.60;;;;;;;15.23;45.39;100434.13;1804504;78;21703;-64
2021/10/28 01:55:43;;;;;;;12.18;10.98;;;;;;;15.23;45.39;100433.30;1809547;77;21045;-63
2021/10/28 01:58:11;;;;;;;12.70;10.95;;;;;;;15.22;45.38;100437.83;1805980;76;21096;-64
2021/10/28 02:00:41;;;;;;;13.78;11.90;;;;;;;15.22;45.42;100439.66;1833448;76;21052;-65
2021/10/28 02:03:07;;;;;;;13.03;11.63;;;;;;;15.21;45.39;100440.69;1826618;76;21046;-65
2021/10/28 02:05:34;;;;;;;14.25;11.73;;;;;;;15.21;45.38;100448.71;1820869;78;21045;-64
2021/10/28 02:08:01;;;;;;;15.43;12.03;;;;;;;15.21;45.37;100440.69;1826315;76;21064;-64
2021/10/28 02:10:27;;;;;;;12.35;11.12;;;;;;;15.19;45.39;100430.16;1831845;76;21136;-63
2021/10/28 02:12:56;;;;;;;13.03;11.60;;;;;;;15.20;45.36;100428.30;1833756;76;21022;-64
2021/10/28 02:15:23;;;;;;;12.80;11.48;;;;;;;15.20;45.39;100433.66;1837671;76;21048;-64
2021/10/28 02:17:50;;;;;;;12.90;11.55;;;;;;;15.19;45.40;100437.36;1846420;76;21004;-64
2021/10/28 02:20:17;;;;;;;12.53;11.22;;;;;;;15.18;45.40;100441.86;1848559;76;21060;-63
2021/10/28 02:22:46;;;;;;;13.35;11.10;;;;;;;15.18;45.38;100445.05;1840482;76;21134;-64
2021/10/28 02:25:13;;;;;;;13.53;11.95;;;;;;;15.17;45.40;100444.73;1831583;76;21001;-64
2021/10/28 02:27:42;;;;;;;12.00;10.78;;;;;;;15.16;45.39;100447.08;1841933;76;21054;-64
2021/10/28 02:30:09;;;;;;;13.28;11.60;;;;;;;15.16;45.40;100448.41;1811522;77;21066;-64
2021/10/28 02:32:37;;;;;;;12.47;11.00;;;;;;;15.14;45.38;100454.80;1824021;77;21026;-65
2021/10/28 02:35:04;;;;;;;13.72;10.78;;;;;;;15.14;45.38;100445.91;1815723;78;23288;-63
2021/10/28 02:37:32;;;;;;;12.98;11.38;;;;;;;15.13;45.41;100441.59;1811514;77;21049;-63
2021/10/28 02:39:58;;;;;;;15.32;12.13;;;;;;;15.12;45.39;100436.75;1806829;77;21081;-64
2021/10/28 02:42:25;;;;;;;13.10;11.80;;;;;;;15.13;45.42;100442.92;1814448;77;21053;-64
2021/10/28 02:44:52;;;;;;;13.22;11.73;;;;;;;15.12;45.42;100436.75;1812364;77;21057;-64
2021/10/28 02:47:18;;;;;;;13.40;12.00;;;;;;;15.12;45.37;100426.05;1828045;77;21077;-64
2021/10/28 02:49:44;;;;;;;12.40;11.12;;;;;;;15.10;45.38;100421.38;1826927;77;21498;-63
2021/10/28 02:52:11;;;;;;;14.87;11.55;;;;;;;15.11;45.38;100423.03;1812009;77;21076;-64
2021/10/28 02:54:38;;;;;;;14.40;12.18;;;;;;;15.12;45.39;100423.85;1811968;77;21756;-63
2021/10/28 02:57:06;;;;;;;13.98;11.93;;;;;;;15.10;45.38;100423.20;1816403;77;21641;-63
2021/10/28 02:59:34;;;;;;;13.95;12.50;;;;;;;15.09;45.39;100433.08;1828169;77;21103;-63
2021/10/28 03:02:00;;;;;;;16.05;12.63;;;;;;;15.09;45.38;100426.39;1822169;77;21554;-64
2021/10/28 03:04:28;;;;;;;12.88;11.57;;;;;;;15.08;45.39;100432.75;1815300;77;21585;-63
2021/10/28 03:06:56;;;;;;;14.65;11.85;;;;;;;15.09;45.39;100438.44;1825972;77;20995;-64
2021/10/28 03:09:26;;;;;;;13.55;11.88;;;;;;;15.07;45.41;100432.44;1808565;77;20993;-64
2021/10/28 03:11:55;;;;;;;13.68;12.28;;;;;;;15.06;45.39;100426.74;1818353;77;21112;-64
2021/10/28 03:14:28;;;;;;;13.55;11.60;;;;;;;15.07;45.41;100422.25;1804065;77;21085;-64
2021/10/28 03:27:37;;;;;;;13.58;12.18;;;;;;;15.02;45.43;100412.06;1819264;77;21557;-63
2021/10/28 03:30:05;;;;;;;14.40;12.18;;;;;;;15.01;45.43;100414.44;1827436;77;21095;-63
2021/10/28 03:32:32;;;;;;;14.68;12.55;;;;;;;15.00;45.45;100425.31;1811899;78;21042;-62
2021/10/28 03:34:58;;;;;;;13.53;12.00;;;;;;;14.99;45.46;100427.64;1817739;78;21080;-63
2021/10/28 03:37:35;;;;;;;15.45;12.43;;;;;;;14.99;45.49;100427.64;1816840;76;21086;-63
2021/10/28 03:50:39;;;;;;;13.50;12.05;;;;;;;14.97;45.48;100407.78;1803974;76;23233;-64
2021/10/28 04:06:29;;;;;;;14.07;12.70;;;;;;;14.91;45.56;100397.78;1820290;76;21598;-62
2021/10/28 04:16:20;;;;;;;14.50;12.33;;;;;;;14.93;45.55;100395.75;1817851;76;20992;-63
2021/10/28 04:30:08;;;;;;;14.87;12.68;;;;;;;14.89;45.62;100407.34;1810888;76;21322;-65
2021/10/28 04:32:34;;;;;;;13.13;11.35;;;;;;;14.89;45.61;100404.67;1807964;76;21070;-65
2021/10/28 04:35:01;;;;;;;14.13;12.03;;;;;;;14.89;45.65;100407.34;1811855;76;21015;-64
2021/10/28 04:37:27;;;;;;;15.48;12.58;;;;;;;14.89;45.63;100398.47;1811549;77;21033;-64
2021/10/28 04:39:54;;;;;;;14.93;12.68;;;;;;;14.89;45.63;100404.67;1830509;77;21057;-63
2021/10/28 04:42:21;;;;;;;14.23;12.73;;;;;;;14.90;45.61;100405.50;1828275;77;23260;-63
2021/10/28 04:44:48;;;;;;;14.23;12.73;;;;;;;14.91;45.61;100403.13;1827511;77;21045;-63
2021/10/28 04:47:16;;;;;;;14.35;12.80;;;;;;;14.91;45.62;100413.83;1831145;77;21041;-64
2021/10/28 04:49:43;;;;;;;14.30;12.10;;;;;;;14.92;45.62;100403.47;1827128;77;21681;-64
2021/10/28 04:52:09;;;;;;;15.10;12.45;;;;;;;14.92;45.61;100403.47;1829981;77;21059;-64
2021/10/28 04:54:36;;;;;;;13.40;12.00;;;;;;;14.91;45.62;100410.67;1827141;77;21880;-63
2021/10/28 04:57:04;;;;;;;14.65;12.43;;;;;;;14.92;45.61;100416.33;1823965;77;21462;-65
2021/10/28 04:59:31;;;;;;;12.95;11.65;;;;;;;14.93;45.60;100419.83;1824268;77;21010;-62
2021/10/28 05:01:57;;;;;;;13.38;11.97;;;;;;;14.92;45.60;100413.66;1831020;77;21084;-63
2021/10/28 05:04:24;;;;;;;14.65;12.63;;;;;;;14.92;45.60;100416.33;1822109;77;21533;-64
2021/10/28 05:06:51;;;;;;;13.80;12.30;;;;;;;14.94;45.56;100420.17;1824992;77;22061;-63
2021/10/28 05:09:40;;;;;;;13.90;12.10;;;;;;;14.93;45.57;100417.16;1828309;76;21537;-63
2021/10/28 05:11:49;;;;;;;12.53;10.95;;;;;;;14.93;45.56;100415.81;1821845;77;21076;-65
2021/10/28 05:14:16;;;;;;;13.55;12.07;;;;;;;14.93;45.56;100419.83;1823667;77;21038;-64
2021/10/28 05:16:42;;;;;;;13.48;11.80;;;;;;;14.93;45.57;100414.48;1815517;77;21037;-63
2021/10/28 05:19:09;;;;;;;13.10;11.73;;;;;;;14.94;45.55;100404.12;1805454;77;21824;-64
2021/10/28 05:21:35;;;;;;;14.35;12.75;;;;;;;14.96;45.55;100406.11;1824740;77;21061;-63
2021/10/28 05:24:01;;;;;;;14.55;12.43;;;;;;;14.95;45.55;100399.11;1828599;77;21104;-63
2021/10/28 05:26:28;;;;;;;13.40;12.10;;;;;;;14.96;45.54;100403.95;1830339;77;21049;-64
2021/10/28 05:28:54;;;;;;;12.68;11.25;;;;;;;14.86;45.52;100382.80;1828297;77;21089;-63
2021/10/28 05:31:21;;;;;;;14.35;12.25;;;;;;;14.96;45.54;100399.42;1829127;77;21102;-64
2021/10/28 05:33:49;;;;;;;13.45;11.93;;;;;;;14.96;45.53;100399.94;1829147;77;21041;-63
2021/10/28 05:36:15;;;;;;;13.98;12.23;;;;;;;14.97;45.54;100410.94;1827420;77;21557;-64
2021/10/28 05:38:41;;;;;;;14.35;11.83;;;;;;;14.97;45.53;100413.62;1800551;77;21587;-65
2021/10/28 05:41:09;;;;;;;13.72;12.23;;;;;;;14.97;45.53;100422.98;1802582;77;21027;-64
2021/10/28 05:43:35;;;;;;;14.07;12.58;;;;;;;14.97;45.53;100423.84;1816148;77;21118;-64
2021/10/28 05:46:01;;;;;;;12.40;11.10;;;;;;;14.98;45.52;100420.13;1803509;77;21046;-65
2021/10/28 05:48:28;;;;;;;13.75;12.07;;;;;;;14.98;45.53;100426.82;1795776;77;21027;-63
2021/10/28 05:50:54;;;;;;;13.68;11.95;;;;;;;14.98;45.52;100428.16;1802845;77;21016;-63
2021/10/28 05:53:20;;;;;;;14.07;12.58;;;;;;;14.98;45.54;100422.81;1804116;77;21511;-65
2021/10/28 05:55:50;;;;;;;14.55;12.63;;;;;;;14.99;45.52;100431.17;1805224;77;21146;-66
2021/10/28 05:58:17;;;;;;;14.95;12.23;;;;;;;15.00;45.49;100434.67;1794113;77;21552;-67
2021/10/28 06:00:43;;;;;;;14.40;12.00;;;;;;;15.01;45.51;100433.16;1807051;77;21601;-65
2021/10/28 06:03:10;;;;;;;14.28;12.23;;;;;;;15.01;45.51;100426.95;1798283;77;21094;-65
2021/10/28 06:05:37;;;;;;;12.45;10.93;;;;;;;15.01;45.50;100428.30;1794657;77;21039;-64
2021/10/28 06:08:04;;;;;;;13.72;12.33;;;;;;;15.01;45.49;100431.83;1794738;77;21135;-64
2021/10/28 06:10:31;;;;;;;14.68;12.68;;;;;;;15.03;45.49;100430.31;1806976;77;21063;-64
2021/10/28 06:13:00;;;;;;;12.55;11.35;;;;;;;15.03;45.49;100438.34;1800211;77;21039;-63
2021/10/28 06:15:28;;;;;;;14.28;12.10;;;;;;;15.03;45.49;100439.67;1795115;77;21558;-64
2021/10/28 06:18:13;;;;;;;14.58;13.10;;;;;;;15.04;45.49;100444.00;1794582;77;21090;-64
2021/10/28 06:20:26;;;;;;;14.95;12.30;;;;;;;15.04;45.48;100447.50;1794949;77;21086;-65
2021/10/28 06:22:52;;;;;;;14.93;12.25;;;;;;;15.04;45.48;100456.87;1794825;77;21524;-64
2021/10/28 06:25:20;;;;;;;14.13;12.65;;;;;;;15.05;45.49;100453.19;1799023;77;22052;-64
2021/10/28 06:27:46;;;;;;;13.18;11.88;;;;;;;15.06;45.46;100456.69;1796953;77;21547;-65
2021/10/28 06:30:13;;;;;;;15.00;12.63;;;;;;;15.07;45.44;100447.67;1801125;77;21060;-64
2021/10/28 06:32:48;;;;;;;14.40;12.47;;;;;;;15.07;45.46;100453.02;1797126;77;21836;-63
2021/10/28 06:35:14;;;;;;;14.25;12.70;;;;;;;15.07;45.45;100457.03;1798123;77;21584;-63
2021/10/28 06:37:45;;;;;;;15.32;12.10;;;;;;;15.07;45.44;100454.36;1802910;77;21132;-63
2021/10/28 06:40:10;;;;;;;14.35;11.95;;;;;;;15.07;45.45;100463.20;1793050;78;21034;-64
2021/10/28 06:42:36;;;;;;;14.75;12.82;;;;;;;15.09;45.45;100465.20;1787838;77;21081;-63
2021/10/28 06:45:04;;;;;;;14.18;12.65;;;;;;;15.09;45.46;100469.21;1785929;77;21103;-63
2021/10/28 06:47:31;;;;;;;14.35;11.90;;;;;;;15.09;45.44;100473.22;1789513;77;21053;-63
2021/10/28 06:50:05;;;;;;;13.93;12.53;;;;;;;15.10;45.44;100472.23;1794043;79;21616;-63
2021/10/28 06:52:35;;;;;;;14.75;12.78;;;;;;;15.11;45.44;100463.69;1797695;77;21026;-64
2021/10/28 06:54:54;;;;;;;14.50;11.88;;;;;;;15.11;45.46;100467.19;1810215;78;21077;-62
2021/10/28 07:02:40;;;;;;;15.78;13.20;;;;;;;15.13;45.55;100467.01;1803000;77;21522;-64
2021/10/28 07:05:07;;;;;;;13.32;11.97;;;;;;;15.14;45.55;100471.34;1795091;79;21061;-64
2021/10/28 07:07:35;;;;;;;13.40;12.03;;;;;;;15.13;45.56;100469.17;1799484;77;21058;-62
2021/10/28 07:10:09;;;;;;;14.18;12.13;;;;;;;15.14;45.55;100465.50;1810520;77;21077;-64
2021/10/28 07:15:08;;;;;;;14.40;12.50;;;;;;;15.16;45.56;100467.14;1773849;78;21108;-64
2021/10/28 07:17:40;;;;;;;13.62;12.23;;;;;;;15.16;45.56;100463.95;1787552;77;21062;-64
2021/10/28 07:28:16;;;;;;;14.45;13.05;;;;;;;15.19;45.54;100465.46;1776048;78;21065;-63
2021/10/28 07:57:26;;;;;;;14.78;12.65;;;;;;;15.24;45.55;100437.63;1816573;77;21011;-64
2021/10/28 08:20:50;;;;;;;13.55;11.93;;;;;;;15.33;45.52;100412.45;1811661;77;21071;-65
2021/10/28 08:31:06;;;;;;;14.03;12.15;;;;;;;15.37;45.51;100409.73;1812551;77;20980;-65
2021/10/28 08:33:33;;;;;;;14.25;12.50;;;;;;;15.38;45.53;100411.41;1808731;77;21050;-65
2021/10/28 08:36:10;;;;;;;14.33;12.35;;;;;;;15.39;45.54;100414.39;1809046;77;21091;-64
2021/10/28 08:38:28;;;;;;;14.90;12.43;;;;;;;15.41;45.52;100417.71;1808089;77;21062;-64
2021/10/28 08:40:54;;;;;;;15.08;12.37;;;;;;;15.43;45.52;100420.21;1824151;77;21732;-64
2021/10/28 08:43:24;;;;;;;14.07;12.47;;;;;;;15.44;45.47;100420.55;1818395;78;21564;-64
2021/10/28 08:45:52;;;;;;;13.60;12.20;;;;;;;15.47;45.48;100433.55;1810157;77;21081;-65
2021/10/28 08:48:22;;;;;;;14.73;12.23;;;;;;;15.48;45.45;100428.53;1810854;78;21021;-65
2021/10/28 08:54:04;;;;;;;14.00;12.33;;;;;;;15.56;45.39;100427.11;1838149;76;28174;-64
2021/10/28 08:56:41;;;;;;;13.00;11.70;;;;;;;15.50;45.41;100424.65;1817430;78;20997;-65
2021/10/28 09:24:49;;;;;;;12.78;11.48;;;;;;;15.69;45.28;100424.62;1799242;77;21189;-65
2021/10/28 09:30:03;;;;;;;12.65;11.28;;;;;;;15.73;45.23;100419.75;1812524;77;21045;-64
2021/10/28 09:52:17;;;;;;;11.22;10.03;;;;;;;16.09;44.81;100400.23;1809481;77;21128;-66
2021/10/28 09:59:54;;;;;;;11.40;10.20;;;;;;;16.32;44.82;100409.44;1791498;77;21101;-65
2021/10/28 10:02:37;;;;;;;11.33;9.98;;;;;;;16.43;44.84;100410.80;1800737;77;21550;-64
2021/10/28 10:05:17;;;;;;;11.65;10.38;;;;;;;16.53;44.92;100401.92;1803757;77;21046;-64
2021/10/28 10:07:44;;;;;;;10.48;9.38;;;;;;;16.67;44.94;100407.76;1746198;80;21115;-65
2021/10/28 10:10:20;;;;;;;10.78;9.60;;;;;;;16.82;44.92;100400.17;1731980;80;21551;-64
2021/10/28 10:12:47;;;;;;;11.00;9.13;;;;;;;16.95;44.92;100388.73;1752346;79;21129;-64
2021/10/28 10:15:14;;;;;;;11.03;9.88;;;;;;;17.07;44.82;100392.05;1742269;80;21092;-65
2021/10/28 10:17:41;;;;;;;10.58;9.48;;;;;;;17.19;44.75;100395.02;1765850;80;21160;-65
2021/10/28 10:20:18;;;;;;;10.63;9.13;;;;;;;17.30;44.65;100389.08;1787995;77;21589;-65
2021/10/28 10:23:22;;;;;;;10.43;8.75;;;;;;;17.41;44.59;100395.77;1797987;77;21585;-65
2021/10/28 12:46:07;;;;;;;11.83;10.45;;;;;;;20.37;48.37;100402.78;1753551;80;21052;-77
2021/10/28 13:48:32;;;;;;;13.03;9.13;;;;;;;20.35;47.92;100454.78;1767324;79;20986;-74
2021/10/28 13:51:07;;;;;;;14.53;9.20;;;;;;;20.34;47.84;100455.84;1764878;79;21129;-76
2021/10/28 13:53:43;;;;;;;10.20;9.05;;;;;;;20.33;47.88;100456.05;1768635;79;21131;-74
2021/10/28 14:29:22;;;;;;;11.75;9.53;;;;;;;20.26;48.05;100472.78;1768866;79;21013;-73
2021/10/28 14:39:23;;;;;;;12.43;9.85;;;;;;;20.25;47.98;100479.23;1763282;79;21597;-76
2021/10/28 15:01:29;;;;;;;10.23;8.93;;;;;;;20.16;47.94;100488.90;1767212;79;21041;-67
2021/10/28 15:28:11;;;;;;;10.98;8.85;;;;;;;19.68;47.25;100502.67;1766428;80;21056;-70
2021/10/28 15:34:01;;;;;;;8.63;7.72;;;;;;;19.60;47.31;100516.37;1761346;79;21100;-70
2021/10/28 15:38:53;;;;;;;10.80;8.68;;;;;;;19.51;47.29;100516.27;1758530;79;21767;-66
2021/10/28 15:41:40;;;;;;;10.58;9.10;;;;;;;19.47;47.31;100527.16;1760708;80;21487;-67
2021/10/28 15:57:37;;;;;;;8.05;7.30;;;;;;;19.24;47.34;100551.30;1775581;80;21013;-66
2021/10/28 16:21:50;;;;;;;9.50;7.35;;;;;;;18.96;47.75;100573.80;1760163;79;21108;-66
2021/10/28 16:24:16;;;;;;;8.55;7.65;;;;;;;18.92;47.75;100569.86;1776728;80;21045;-67
2021/10/28 16:26:42;;;;;;;7.75;6.95;;;;;;;18.89;47.77;100574.33;1764837;80;21087;-68
2021/10/28 16:29:11;;;;;;;9.45;7.78;;;;;;;18.86;47.75;100574.72;1771892;79;21081;-66
2021/10/28 16:31:37;;;;;;;9.85;7.95;;;;;;;18.83;47.77;100577.31;1760479;79;21742;-67
2021/10/28 16:34:03;;;;;;;10.40;8.83;;;;;;;18.82;47.76;100584.23;1757117;80;21096;-65
2021/10/28 16:36:30;;;;;;;10.35;7.37;;;;;;;18.80;47.75;100581.73;1754220;79;21041;-66
2021/10/28 16:38:58;;;;;;;8.05;7.30;;;;;;;18.77;47.78;100577.23;1760337;79;21375;-65
2021/10/28 16:41:24;;;;;;;8.23;7.42;;;;;;;18.74;47.73;100571.75;1768630;80;21049;-66
2021/10/28 16:43:51;;;;;;;7.80;7.03;;;;;;;18.73;47.75;100577.33;1766903;79;21132;-66
2021/10/28 16:46:19;;;;;;;8.85;7.62;;;;;;;18.71;47.74;100575.36;1756744;79;21034;-66
2021/10/28 16:48:45;;;;;;;8.43;7.53;;;;;;;18.69;47.73;100581.45;1765411;79;20982;-65
2021/10/28 16:51:12;;;;;;;8.15;7.35;;;;;;;18.65;47.72;100581.84;1755023;79;21304;-65
2021/10/28 16:53:39;;;;;;;8.25;7.17;;;;;;;18.65;47.71;100583.19;1754518;79;21045;-65
2021/10/28 16:56:05;;;;;;;8.33;7.50;;;;;;;18.62;47.73;100587.64;1768968;79;21722;-65
2021/10/28 16:58:31;;;;;;;8.60;7.70;;;;;;;18.62;47.73;100589.48;1757283;79;21080;-66
2021/10/28 17:00:58;;;;;;;8.45;6.83;;;;;;;18.59;47.71;100586.69;1772613;80;21049;-65
2021/10/28 17:03:24;;;;;;;8.90;8.00;;;;;;;18.57;47.71;100591.44;1774337;79;21014;-66
2021/10/28 17:05:51;;;;;;;7.28;6.58;;;;;;;18.56;47.71;100594.33;1772659;79;21536;-66
2021/10/28 17:08:18;;;;;;;7.92;7.10;;;;;;;18.54;47.68;100596.39;1774640;80;21065;-66
2021/10/28 17:10:45;;;;;;;8.00;7.17;;;;;;;18.52;47.69;100597.10;1763999;79;21014;-67
2021/10/28 17:13:12;;;;;;;8.90;7.75;;;;;;;18.50;47.70;100598.64;1774349;79;21501;-67
2021/10/28 17:15:38;;;;;;;7.25;6.55;;;;;;;18.47;47.71;100597.72;1763258;79;21565;-66
2021/10/28 17:18:04;;;;;;;8.03;7.22;;;;;;;18.46;47.70;100604.11;1763652;79;21065;-66
2021/10/28 17:20:35;;;;;;;10.05;7.37;;;;;;;18.43;47.72;100601.84;1760297;80;21137;-66
2021/10/28 17:23:03;;;;;;;9.40;7.30;;;;;;;18.42;47.71;100603.67;1761108;79;21081;-66
2021/10/28 17:25:32;;;;;;;7.58;6.75;;;;;;;18.41;47.70;100601.20;1766774;79;21052;-66
2021/10/28 17:27:58;;;;;;;7.78;7.00;;;;;;;18.39;47.71;100605.95;1751550;79;21568;-66
2021/10/28 17:30:25;;;;;;;8.38;7.35;;;;;;;18.36;47.72;100605.81;1764280;79;21022;-66
2021/10/28 17:32:51;;;;;;;7.95;7.12;;;;;;;18.35;47.73;100601.97;1751639;79;21124;-66
2021/10/28 17:35:17;;;;;;;8.50;7.67;;;;;;;18.32;47.72;100603.73;1762272;79;21591;-66
2021/10/28 17:37:44;;;;;;;8.53;7.28;;;;;;;18.31;47.72;100601.56;1762764;79;21080;-65
2021/10/28 17:40:10;;;;;;;7.08;6.37;;;;;;;18.30;47.74;100605.79;1752525;80;21037;-65
2021/10/28 17:42:38;;;;;;;8.95;7.37;;;;;;;18.27;47.74;100607.85;1777882;79;21112;-67
2021/10/28 17:45:07;;;;;;;8.53;7.30;;;;;;;18.27;47.74;100615.06;1753981;79;21152;-66
2021/10/28 17:47:35;;;;;;;7.75;6.95;;;;;;;18.25;47.73;100607.71;1755477;79;21045;-66
2021/10/28 17:50:01;;;;;;;7.83;7.03;;;;;;;18.23;47.76;100613.80;1754778;79;21076;-67
2021/10/28 17:52:28;;;;;;;7.58;6.78;;;;;;;18.20;47.76;100608.84;1761196;79;21631;-67
2021/10/28 17:54:54;;;;;;;6.78;6.08;;;;;;;18.19;47.76;100613.36;1770647;79;21631;-64
2021/10/28 17:57:21;;;;;;;8.43;6.80;;;;;;;18.18;47.77;100614.92;1805456;78;21116;-64
2021/10/28 17:59:47;;;;;;;7.30;6.62;;;;;;;18.18;47.77;100617.62;1795372;77;21081;-67
2021/10/28 18:02:13;;;;;;;6.72;6.10;;;;;;;18.16;47.78;100625.05;1808990;78;21034;-64
2021/10/28 18:04:42;;;;;;;7.37;6.47;;;;;;;18.15;47.78;100624.72;1814047;77;21071;-64
2021/10/28 18:07:11;;;;;;;7.12;6.42;;;;;;;18.13;47.78;100623.56;1813600;78;21062;-66
2021/10/28 18:09:43;;;;;;;7.22;6.35;;;;;;;18.10;47.79;100619.94;1813269;78;21065;-69
2021/10/28 18:12:09;;;;;;;7.17;6.47;;;;;;;18.10;47.79;100620.43;1789553;79;21106;-68
2021/10/28 18:14:35;;;;;;;8.58;6.50;;;;;;;18.07;47.82;100633.24;1817224;78;21112;-67
2021/10/28 18:17:02;;;;;;;7.37;6.67;;;;;;;18.07;47.81;100631.89;1812861;78;21065;-69
2021/10/28 18:19:31;;;;;;;8.08;7.22;;;;;;;18.05;47.82;100631.27;1807867;78;21097;-71
2021/10/28 18:21:57;;;;;;;6.65;5.95;;;;;;;18.03;47.83;100633.31;1811164;78;21098;-68
2021/10/28 18:24:26;;;;;;;7.25;6.55;;;;;;;18.03;47.84;100637.35;1810373;77;21073;-69
2021/10/28 18:26:53;;;;;;;7.33;6.65;;;;;;;18.02;47.83;100636.20;1816131;78;21026;-66
2021/10/28 18:29:19;;;;;;;7.30;6.60;;;;;;;18.01;47.83;100630.52;1805545;77;21573;-66
2021/10/28 18:31:46;;;;;;;7.00;6.33;;;;;;;18.00;47.86;100635.56;1814329;77;21034;-68
2021/10/28 18:34:14;;;;;;;6.97;6.28;;;;;;;17.99;47.86;100633.91;1811091;78;21100;-68
2021/10/28 18:36:41;;;;;;;8.68;6.45;;;;;;;17.97;47.87;100633.28;1816822;78;21534;-65
2021/10/28 18:39:09;;;;;;;6.92;6.15;;;;;;;17.97;47.87;100637.31;1804838;77;21089;-71
2021/10/28 18:41:36;;;;;;;7.28;6.58;;;;;;;17.96;47.88;100639.67;1791955;77;21605;-67
2021/10/28 18:44:02;;;;;;;7.22;6.25;;;;;;;17.95;47.89;100636.68;1811556;77;21029;-67
2021/10/28 18:46:29;;;;;;;7.37;6.55;;;;;;;17.94;47.89;100643.06;1807399;79;21132;-67
2021/10/28 18:49:02;;;;;;;7.33;6.03;;;;;;;17.93;47.88;100640.08;1810507;77;21140;-68
2021/10/28 18:51:28;;;;;;;7.72;6.58;;;;;;;17.91;47.90;100638.92;1802282;77;21097;-66
2021/10/28 18:53:54;;;;;;;7.17;6.37;;;;;;;17.91;47.89;100642.12;1802845;77;21532;-68
2021/10/28 18:56:21;;;;;;;6.67;6.03;;;;;;;17.90;47.89;100645.83;1802442;77;21207;-67
2021/10/28 18:58:48;;;;;;;7.55;6.75;;;;;;;17.88;47.91;100648.70;1793627;77;21113;-68
2021/10/28 19:01:16;;;;;;;7.25;6.42;;;;;;;17.87;47.91;100650.57;1797359;77;21081;-66
2021/10/28 19:03:44;;;;;;;6.65;5.92;;;;;;;17.87;47.92;100646.54;1797436;77;21009;-66
2021/10/28 19:06:11;;;;;;;6.55;5.87;;;;;;;17.85;47.88;100655.31;1793369;79;21062;-66
2021/10/28 19:08:39;;;;;;;6.80;6.08;;;;;;;17.85;47.92;100663.38;1794098;77;21078;-66
2021/10/28 19:11:06;;;;;;;8.35;6.33;;;;;;;17.85;47.90;100658.52;1806031;79;21118;-65
2021/10/28 19:13:33;;;;;;;6.75;6.05;;;;;;;17.83;47.90;100664.05;1799393;77;21517;-65
2021/10/28 19:16:00;;;;;;;6.65;5.97;;;;;;;17.83;47.92;100667.25;1797433;77;21069;-65
2021/10/28 19:18:26;;;;;;;7.12;6.40;;;;;;;17.82;47.94;100669.09;1788310;78;21609;-66
2021/10/28 19:20:53;;;;;;;6.78;5.70;;;;;;;17.81;47.93;100674.16;1746984;80;21109;-65
2021/10/28 19:23:20;;;;;;;6.85;6.15;;;;;;;17.80;47.92;100675.17;1781492;78;21136;-64
2021/10/28 19:25:46;;;;;;;6.97;6.12;;;;;;;17.79;47.93;100681.59;1741394;80;21068;-66
2021/10/28 19:28:13;;;;;;;6.70;5.95;;;;;;;17.78;47.92;100677.74;1740527;80;21026;-66
2021/10/28 19:31:01;;;;;;;6.80;6.10;;;;;;;17.78;47.94;100687.97;1740417;80;21013;-65
2021/10/28 19:33:38;;;;;;;5.97;5.37;;;;;;;17.77;47.94;100686.81;1786359;79;21560;-66
2021/10/28 19:36:01;;;;;;;7.08;6.37;;;;;;;17.75;47.94;100687.03;1776596;79;21335;-66
2021/10/28 19:41:37;;;;;;;6.53;5.85;;;;;;;17.73;47.95;100691.77;1804335;77;21026;-65
2021/10/28 19:46:33;;;;;;;6.72;5.83;;;;;;;17.71;47.98;100692.96;1809738;79;21527;-65
2021/10/28 19:49:00;;;;;;;7.15;6.45;;;;;;;17.69;47.99;100693.14;1805365;77;21052;-65
2021/10/28 19:51:27;;;;;;;7.08;6.37;;;;;;;17.68;48.00;100699.04;1800663;77;21121;-65
2021/10/28 19:53:54;;;;;;;6.53;5.83;;;;;;;17.68;48.01;100695.53;1805702;77;21077;-67
2021/10/28 19:56:21;;;;;;;6.72;6.08;;;;;;;17.68;48.01;100703.59;1813017;77;21065;-65
2021/10/28 19:58:54;;;;;;;5.83;5.28;;;;;;;17.66;48.00;100705.64;1813628;78;21022;-65
2021/10/28 20:14:29;;;;;;;5.92;5.33;;;;;;;17.63;48.01;100706.83;1826662;77;21061;-65
2021/10/28 20:22:19;;;;;;;6.60;5.92;;;;;;;17.60;48.05;100711.27;1804804;77;21116;-65